createdAt,value
2018-08-04T00:00:54.876Z,19.83
2018-08-04T00:03:23.916Z,19.71
2018-08-04T00:05:52.973Z,19.66
2018-08-04T00:08:22.327Z,19.83
2018-08-04T00:10:51.382Z,19.77
2018-08-04T00:15:56.194Z,19.85
2018-08-04T00:18:25.245Z,19.85
2018-08-04T00:20:54.350Z,19.80
2018-08-04T00:23:23.417Z,19.76
2018-08-04T00:25:52.552Z,19.68
2018-08-04T00:28:21.625Z,19.59
2018-08-04T00:30:50.694Z,19.53
2018-08-04T00:33:19.762Z,19.50
2018-08-04T00:35:48.817Z,19.53
2018-08-04T00:38:18.877Z,19.58
2018-08-04T00:40:47.937Z,19.43
2018-08-04T00:43:17.011Z,19.31
2018-08-04T00:45:46.098Z,19.15
2018-08-04T00:48:15.157Z,19.17
2018-08-04T00:50:44.267Z,19.28
2018-08-04T00:53:13.338Z,19.18
2018-08-04T00:55:42.394Z,19.17
2018-08-04T00:58:11.465Z,19.15
2018-08-04T01:00:40.565Z,19.24
2018-08-04T01:03:09.632Z,19.23
2018-08-04T01:05:39.657Z,19.16
2018-08-04T01:08:08.715Z,19.12
2018-08-04T01:10:37.792Z,19.14
2018-08-04T01:13:06.871Z,19.12
2018-08-04T01:18:11.737Z,19.28
2018-08-04T01:20:40.863Z,19.07
2018-08-04T01:23:09.926Z,18.92
2018-08-04T01:25:39.022Z,18.89
2018-08-04T01:30:43.880Z,19.05
2018-08-04T01:33:12.980Z,19.07
2018-08-04T01:35:42.044Z,19.05
2018-08-04T01:38:11.109Z,18.99
2018-08-04T01:40:40.173Z,18.83
2018-08-04T01:43:09.259Z,18.92
2018-08-04T01:45:38.307Z,18.88
2018-08-04T01:48:07.370Z,18.81
2018-08-04T01:50:36.476Z,18.82
2018-08-04T01:53:05.544Z,18.73
2018-08-04T01:55:34.603Z,18.73
2018-08-04T01:58:03.656Z,18.74
2018-08-04T02:00:32.717Z,18.69
2018-08-04T02:03:02.777Z,18.60
2018-08-04T02:05:32.791Z,18.54
2018-08-04T02:08:02.053Z,18.55
2018-08-04T02:14:08.543Z,18.55
2018-08-04T02:16:37.602Z,18.50
2018-08-04T02:19:07.673Z,18.45
2018-08-04T02:21:36.722Z,18.42
2018-08-04T02:24:05.790Z,18.43
2018-08-04T02:26:35.905Z,18.43
2018-08-04T02:29:04.964Z,18.41
2018-08-04T02:31:34.025Z,18.33
2018-08-04T02:34:03.093Z,18.30
2018-08-04T02:36:34.126Z,18.33
2018-08-04T02:39:03.219Z,18.37
2018-08-04T02:44:08.003Z,18.49
2018-08-04T02:49:12.854Z,18.44
2018-08-04T02:51:41.925Z,18.50
2018-08-04T02:54:10.989Z,18.49
2018-08-04T02:56:40.058Z,18.44
2018-08-04T02:59:09.153Z,18.27
2018-08-04T03:01:38.196Z,18.11
2018-08-04T03:04:07.285Z,18.01
2018-08-04T03:06:36.345Z,17.96
2018-08-04T03:11:41.215Z,18.01
2018-08-04T03:14:10.304Z,18.13
2018-08-04T03:19:15.171Z,18.34
2018-08-04T03:21:44.288Z,18.29
2018-08-04T03:24:13.388Z,18.03
2018-08-04T03:26:42.445Z,17.99
2018-08-04T03:31:47.458Z,18.09
2018-08-04T03:34:16.509Z,18.16
2018-08-04T03:36:45.582Z,18.19
2018-08-04T03:39:15.593Z,18.29
2018-08-04T03:41:44.777Z,18.17
2018-08-04T03:44:15.061Z,18.21
2018-08-04T03:46:44.102Z,18.11
2018-08-04T03:49:13.168Z,18.04
2018-08-04T03:51:42.235Z,18.01
2018-08-04T03:54:11.335Z,17.97
2018-08-04T03:56:41.430Z,18.00
2018-08-04T04:01:46.234Z,18.05
2018-08-04T04:04:15.293Z,18.17
2018-08-04T04:06:44.481Z,18.12
2018-08-04T04:11:49.172Z,18.10
2018-08-04T04:14:18.249Z,18.17
2018-08-04T04:19:23.254Z,18.39
2018-08-04T04:21:52.315Z,18.37
2018-08-04T04:26:57.212Z,18.68
2018-08-04T04:29:26.250Z,18.66
2018-08-04T04:31:55.306Z,18.61
2018-08-04T04:34:24.371Z,18.63
2018-08-04T04:36:53.494Z,18.81
2018-08-04T04:39:22.505Z,18.73
2018-08-04T04:41:51.563Z,18.70
2018-08-04T04:44:20.633Z,18.82
2018-08-04T04:46:49.714Z,18.82
2018-08-04T04:49:21.008Z,18.80
2018-08-04T04:51:50.146Z,18.89
2018-08-04T04:54:19.207Z,18.99
2018-08-04T04:59:24.062Z,19.33
2018-08-04T05:04:28.957Z,19.46
2018-08-04T05:06:58.239Z,19.61
2018-08-04T05:09:27.314Z,19.69
2018-08-04T05:11:56.373Z,19.66
2018-08-04T05:17:01.173Z,19.80
2018-08-04T05:19:30.257Z,19.97
2018-08-04T05:21:59.343Z,20.13
2018-08-04T05:24:28.407Z,20.19
2018-08-04T05:26:57.479Z,20.21
2018-08-04T05:29:26.550Z,20.31
2018-08-04T05:31:56.629Z,20.21
2018-08-04T05:34:25.698Z,20.25
2018-08-04T05:36:55.684Z,20.35
2018-08-04T05:39:28.771Z,20.56
2018-08-04T05:41:57.855Z,20.74
2018-08-04T05:44:26.965Z,20.72
2018-08-04T05:46:56.030Z,20.85
2018-08-04T05:49:26.092Z,20.88
2018-08-04T05:51:57.141Z,21.08
2018-08-04T05:54:26.208Z,21.20
2018-08-04T05:56:55.279Z,21.33
2018-08-04T05:59:24.352Z,21.54
2018-08-04T06:04:29.215Z,21.98
2018-08-04T06:06:58.284Z,22.18
2018-08-04T06:09:27.342Z,22.25
2018-08-04T06:11:58.409Z,22.28
2018-08-04T06:14:27.497Z,22.38
2018-08-04T06:19:33.312Z,22.68
2018-08-04T06:22:02.415Z,22.86
2018-08-04T06:24:33.765Z,22.88
2018-08-04T06:29:38.667Z,22.89
2018-08-04T06:32:07.734Z,23.01
2018-08-04T06:34:36.804Z,23.15
2018-08-04T06:37:06.317Z,23.20
2018-08-04T06:39:35.373Z,23.32
2018-08-04T06:44:40.221Z,23.46
2018-08-04T06:47:09.278Z,23.64
2018-08-04T06:49:41.117Z,23.60
2018-08-04T06:52:11.200Z,23.83
2018-08-04T06:54:40.248Z,24.02
2018-08-04T06:59:45.113Z,24.21
2018-08-04T07:02:14.705Z,24.29
2018-08-04T07:07:19.583Z,24.53
2018-08-04T07:09:49.226Z,24.73
2018-08-04T07:14:54.536Z,24.72
2018-08-04T07:20:00.315Z,24.83
2018-08-04T07:22:30.779Z,24.94
2018-08-04T07:25:05.363Z,24.98
2018-08-04T07:30:10.473Z,25.35
2018-08-04T07:32:39.528Z,25.54
2018-08-04T07:35:08.583Z,25.62
2018-08-04T07:37:37.658Z,25.57
2018-08-04T07:40:07.650Z,25.51
2018-08-04T07:42:36.765Z,25.65
2018-08-04T07:45:05.849Z,25.78
2018-08-04T07:47:34.973Z,25.89
2018-08-04T07:50:07.349Z,26.04
2018-08-04T07:52:40.098Z,26.19
2018-08-04T07:55:09.164Z,26.09
2018-08-04T07:57:51.683Z,26.23
2018-08-04T08:00:23.927Z,26.46
2018-08-04T08:05:28.741Z,26.56
2018-08-04T08:08:03.026Z,26.88
2018-08-04T08:13:07.946Z,27.14
2018-08-04T08:15:50.177Z,27.33
2018-08-04T08:18:20.201Z,27.63
2018-08-04T08:20:53.705Z,27.61
2018-08-04T08:25:58.609Z,28.24
2018-08-04T08:28:31.173Z,28.39
2018-08-04T08:33:40.141Z,28.64
2018-08-04T08:36:09.199Z,28.47
2018-08-04T08:38:39.220Z,28.58
2018-08-04T08:41:21.574Z,28.59
2018-08-04T08:43:50.940Z,28.57
2018-08-04T08:46:23.754Z,28.66
2018-08-04T08:51:28.670Z,29.31
2018-08-04T08:54:01.570Z,29.69
2018-08-04T08:56:30.530Z,29.87
2018-08-04T08:58:59.581Z,29.86
2018-08-04T09:01:28.805Z,30.28
2018-08-04T09:06:40.954Z,30.48
2018-08-04T09:09:12.010Z,31.06
2018-08-04T09:11:44.777Z,31.23
2018-08-04T09:14:13.848Z,31.42
2018-08-04T09:16:43.418Z,31.69
2018-08-04T09:19:12.483Z,31.78
2018-08-04T09:21:42.508Z,31.80
2018-08-04T09:24:11.661Z,33.03
2018-08-04T09:26:40.727Z,33.93
2018-08-04T09:31:45.547Z,35.79
2018-08-04T09:34:14.596Z,37.12
2018-08-04T09:36:45.605Z,37.24
2018-08-04T09:39:14.683Z,37.51
2018-08-04T09:41:43.747Z,36.53
2018-08-04T09:46:48.682Z,37.79
2018-08-04T09:49:17.764Z,39.39
2018-08-04T09:51:47.774Z,39.93
2018-08-04T09:54:16.851Z,40.11
2018-08-04T09:56:45.905Z,41.07
2018-08-04T09:59:15.914Z,41.49
2018-08-04T10:04:22.690Z,37.60
2018-08-04T10:06:52.023Z,37.42
2018-08-04T10:09:22.023Z,39.20
2018-08-04T10:11:51.088Z,39.46
2018-08-04T10:14:20.405Z,41.20
2018-08-04T10:16:49.476Z,39.97
2018-08-04T10:19:18.522Z,40.51
2018-08-04T10:24:23.308Z,42.14
2018-08-04T10:26:52.846Z,44.37
2018-08-04T10:29:23.418Z,41.60
2018-08-04T10:31:52.508Z,42.64
2018-08-04T10:34:22.526Z,41.93
2018-08-04T10:36:51.568Z,43.54
2018-08-04T10:39:20.616Z,44.40
2018-08-04T10:41:49.669Z,42.79
2018-08-04T10:44:19.643Z,40.83
2018-08-04T10:46:48.685Z,42.00
2018-08-04T10:49:17.770Z,41.43
2018-08-04T10:51:46.828Z,40.18
2018-08-04T10:54:17.043Z,43.84
2018-08-04T10:56:46.166Z,41.82
2018-08-04T10:59:15.206Z,41.67
2018-08-04T11:01:44.393Z,42.69
2018-08-04T11:04:13.425Z,46.18
2018-08-04T11:06:42.484Z,45.93
2018-08-04T11:09:11.554Z,43.84
2018-08-04T11:11:40.621Z,43.96
2018-08-04T11:14:10.704Z,42.45
2018-08-04T11:16:42.010Z,43.43
2018-08-04T11:19:11.072Z,44.94
2018-08-04T11:21:40.135Z,48.19
2018-08-04T11:24:09.507Z,46.38
2018-08-04T11:26:38.537Z,38.13
2018-08-04T11:34:19.127Z,35.94
2018-08-04T11:36:48.185Z,35.95
2018-08-04T11:39:18.544Z,39.00
2018-08-04T11:41:47.662Z,42.33
2018-08-04T11:44:16.728Z,44.65
2018-08-04T11:46:45.791Z,45.53
2018-08-04T11:54:26.359Z,45.58
2018-08-04T11:56:56.765Z,46.13
2018-08-04T11:59:25.996Z,46.61
2018-08-04T12:01:55.943Z,47.19
2018-08-04T12:04:24.949Z,47.11
2018-08-04T12:06:54.171Z,46.85
2018-08-04T12:09:23.259Z,47.35
2018-08-04T12:11:52.313Z,46.33
2018-08-04T12:14:21.513Z,45.38
2018-08-04T12:16:50.568Z,46.88
2018-08-04T12:19:19.635Z,47.27
2018-08-04T12:21:49.313Z,48.01
2018-08-04T12:24:20.360Z,49.16
2018-08-04T12:26:49.416Z,50.61
2018-08-04T12:29:18.795Z,47.02
2018-08-04T12:31:48.756Z,47.72
2018-08-04T12:36:53.713Z,45.71
2018-08-04T12:39:22.770Z,48.40
2018-08-04T12:41:51.842Z,45.34
2018-08-04T12:44:20.888Z,42.06
2018-08-04T12:46:49.951Z,42.00
2018-08-04T12:51:54.752Z,46.92
2018-08-04T12:56:59.463Z,47.85
2018-08-04T13:02:04.208Z,49.78
2018-08-04T13:04:34.407Z,45.43
2018-08-04T13:07:03.430Z,46.77
2018-08-04T13:09:32.502Z,47.69
2018-08-04T13:12:02.574Z,50.26
2018-08-04T13:14:31.587Z,48.43
2018-08-04T13:17:00.638Z,47.06
2018-08-04T13:19:29.681Z,49.19
2018-08-04T13:21:58.795Z,50.32
2018-08-04T13:24:27.812Z,50.03
2018-08-04T13:26:57.901Z,49.57
2018-08-04T13:29:27.047Z,50.63
2018-08-04T13:31:59.997Z,50.92
2018-08-04T13:34:29.134Z,50.79
2018-08-04T13:36:59.088Z,47.49
2018-08-04T13:39:30.016Z,49.92
2018-08-04T13:44:34.763Z,50.36
2018-08-04T13:49:39.573Z,44.31
2018-08-04T13:52:08.622Z,46.65
2018-08-04T13:54:40.795Z,41.96
2018-08-04T13:57:10.277Z,44.60
2018-08-04T13:59:39.339Z,43.60
2018-08-04T14:02:08.448Z,43.94
2018-08-04T14:04:37.954Z,44.61
2018-08-04T14:07:07.020Z,45.83
2018-08-04T14:09:36.110Z,47.37
2018-08-04T14:17:16.616Z,48.51
2018-08-04T14:19:46.594Z,46.10
2018-08-04T14:22:15.658Z,47.33
2018-08-04T14:24:44.723Z,49.04
2018-08-04T14:27:13.805Z,48.82
2018-08-04T14:29:42.931Z,47.91
2018-08-04T14:32:12.983Z,46.13
2018-08-04T14:34:42.119Z,45.59
2018-08-04T14:37:11.203Z,43.76
2018-08-04T14:39:40.250Z,43.39
2018-08-04T14:42:09.304Z,45.14
2018-08-04T14:44:38.364Z,45.96
2018-08-04T14:47:08.345Z,47.07
2018-08-04T14:49:37.475Z,43.71
2018-08-04T14:52:07.661Z,47.35
2018-08-04T14:54:36.706Z,46.12
2018-08-04T14:57:06.697Z,45.10
2018-08-04T14:59:37.715Z,47.21
2018-08-04T15:02:06.769Z,47.37
2018-08-04T15:04:35.841Z,47.41
2018-08-04T15:07:04.936Z,44.83
2018-08-04T15:09:33.991Z,45.79
2018-08-04T15:12:05.465Z,46.94
2018-08-04T15:14:35.559Z,46.07
2018-08-04T15:17:04.681Z,46.98
2018-08-04T15:19:34.703Z,46.84
2018-08-04T15:22:04.749Z,47.28
2018-08-04T15:27:09.628Z,48.19
2018-08-04T15:29:38.726Z,48.70
2018-08-04T15:32:08.821Z,46.97
2018-08-04T15:34:37.864Z,45.04
2018-08-04T15:37:06.908Z,42.50
2018-08-04T15:39:35.984Z,45.15
2018-08-04T15:42:05.029Z,45.59
2018-08-04T15:47:09.780Z,41.40
2018-08-04T15:49:39.904Z,42.30
2018-08-04T15:52:09.972Z,42.77
2018-08-04T15:54:40.022Z,41.78
2018-08-04T15:57:10.805Z,42.82
2018-08-04T15:59:40.893Z,43.20
2018-08-04T16:02:09.944Z,42.74
2018-08-04T16:04:39.242Z,43.52
2018-08-04T16:07:08.305Z,42.53
2018-08-04T16:09:38.287Z,43.84
2018-08-04T16:12:07.481Z,39.36
2018-08-04T16:14:36.513Z,40.67
2018-08-04T16:17:05.578Z,39.90
2018-08-04T16:19:34.689Z,38.26
2018-08-04T16:22:03.747Z,39.58
2018-08-04T16:24:32.790Z,41.20
2018-08-04T16:27:02.828Z,40.06
2018-08-04T16:29:31.861Z,38.28
2018-08-04T16:32:00.937Z,37.20
2018-08-04T16:34:30.005Z,37.75
2018-08-04T16:36:59.221Z,35.90
2018-08-04T16:42:04.134Z,35.39
2018-08-04T16:44:33.140Z,35.44
2018-08-04T16:47:02.181Z,35.35
2018-08-04T16:52:07.034Z,34.59
2018-08-04T16:54:36.126Z,34.60
2018-08-04T16:57:05.216Z,33.91
2018-08-04T16:59:38.817Z,34.08
2018-08-04T17:02:07.939Z,33.65
2018-08-04T17:07:12.785Z,34.58
2018-08-04T17:09:41.842Z,34.73
2018-08-04T17:12:11.011Z,33.65
2018-08-04T17:14:41.029Z,33.87
2018-08-04T17:17:10.094Z,33.67
2018-08-04T17:19:39.156Z,33.78
2018-08-04T17:22:09.449Z,33.99
2018-08-04T17:27:15.474Z,33.38
2018-08-04T17:29:44.572Z,32.66
2018-08-04T17:32:13.626Z,32.23
2018-08-04T17:37:19.412Z,32.66
2018-08-04T17:39:48.465Z,32.41
2018-08-04T17:42:19.510Z,32.30
2018-08-04T17:44:48.549Z,32.24
2018-08-04T17:47:17.786Z,32.21
2018-08-04T17:49:46.955Z,31.82
2018-08-04T17:52:16.098Z,31.66
2018-08-04T17:54:46.131Z,31.32
2018-08-04T17:57:15.241Z,31.18
2018-08-04T17:59:44.263Z,31.09
2018-08-04T18:02:13.333Z,30.87
2018-08-04T18:04:42.373Z,30.62
2018-08-04T18:07:11.447Z,30.22
2018-08-04T18:09:40.513Z,30.07
2018-08-04T18:12:09.626Z,29.75
2018-08-04T18:14:38.695Z,29.47
2018-08-04T18:19:43.455Z,29.29
2018-08-04T18:22:12.513Z,29.18
2018-08-04T18:27:17.361Z,28.50
2018-08-04T18:29:46.551Z,28.20
2018-08-04T18:32:15.539Z,27.96
2018-08-04T18:34:46.523Z,28.02
2018-08-04T18:37:15.615Z,27.94
2018-08-04T18:39:44.665Z,28.09
2018-08-04T18:42:14.695Z,27.87
2018-08-04T18:44:43.779Z,27.69
2018-08-04T18:47:20.961Z,27.58
2018-08-04T18:49:50.993Z,27.68
2018-08-04T18:52:20.049Z,27.48
2018-08-04T18:54:49.122Z,27.31
2018-08-04T18:57:19.108Z,27.15
2018-08-04T18:59:48.164Z,27.14
2018-08-04T19:02:17.242Z,26.79
2018-08-04T19:04:47.220Z,26.60
2018-08-04T19:07:18.277Z,26.53
2018-08-04T19:09:48.286Z,26.35
2018-08-04T19:14:53.180Z,26.45
2018-08-04T19:17:25.616Z,26.43
2018-08-04T19:22:30.564Z,26.15
2018-08-04T19:24:59.561Z,26.19
2018-08-04T19:30:04.875Z,25.87
2018-08-04T19:32:33.957Z,25.78
2018-08-04T19:35:04.973Z,25.65
2018-08-04T19:40:09.858Z,25.78
2018-08-04T19:42:38.946Z,25.86
2018-08-04T19:45:08.023Z,25.88
2018-08-04T19:47:38.037Z,25.66
2018-08-04T19:50:07.144Z,25.64
2018-08-04T19:55:12.020Z,25.09
2018-08-04T19:57:42.017Z,24.95
2018-08-04T20:02:47.905Z,25.06
2018-08-04T20:05:16.982Z,24.88
2018-08-04T20:10:21.886Z,24.91
2018-08-04T20:12:50.945Z,25.14
2018-08-04T20:15:20.005Z,25.02
2018-08-04T20:17:49.065Z,24.98
2018-08-04T20:20:18.184Z,25.04
2018-08-04T20:22:47.245Z,24.97
2018-08-04T20:25:16.304Z,24.85
2018-08-04T20:27:45.397Z,24.81
2018-08-04T20:30:14.450Z,24.69
2018-08-04T20:32:43.538Z,24.74
2018-08-04T20:35:12.600Z,24.70
2018-08-04T20:42:53.165Z,24.42
2018-08-04T20:45:23.185Z,24.32
2018-08-04T20:47:52.313Z,24.07
2018-08-04T20:50:21.361Z,23.93
2018-08-04T20:52:50.478Z,23.98
2018-08-04T20:57:55.255Z,23.81
2018-08-04T21:00:24.325Z,23.69
2018-08-04T21:02:53.424Z,23.70
2018-08-04T21:05:26.498Z,23.60
2018-08-04T21:10:31.373Z,23.40
2018-08-04T21:13:00.453Z,23.27
2018-08-04T21:15:29.518Z,23.25
2018-08-04T21:20:34.367Z,23.23
2018-08-04T21:25:39.163Z,23.07
2018-08-04T21:28:08.214Z,22.96
2018-08-04T21:33:13.025Z,23.01
2018-08-04T21:35:42.084Z,23.02
2018-08-04T21:38:12.131Z,23.02
2018-08-04T21:40:42.137Z,23.15
2018-08-04T21:43:14.410Z,23.06
2018-08-04T21:48:19.285Z,22.85
2018-08-04T21:50:48.361Z,22.77
2018-08-04T21:53:17.413Z,22.49
2018-08-04T21:55:46.471Z,22.35
2018-08-04T21:58:16.477Z,22.43
2018-08-04T22:03:21.185Z,22.56
2018-08-04T22:05:52.157Z,22.49
2018-08-04T22:11:30.792Z,22.34
2018-08-04T22:13:59.857Z,22.15
2018-08-04T22:16:28.954Z,21.92
2018-08-04T22:18:58.017Z,22.10
2018-08-04T22:21:27.080Z,22.15
2018-08-04T22:23:58.113Z,22.02
2018-08-04T22:26:27.185Z,22.00
2018-08-04T22:28:56.241Z,22.05
2018-08-04T22:31:25.335Z,22.10
2018-08-04T22:33:57.697Z,22.26
2018-08-04T22:36:26.848Z,22.19
2018-08-04T22:38:55.917Z,22.16
2018-08-04T22:44:00.787Z,21.82
2018-08-04T22:46:31.827Z,21.87
2018-08-04T22:49:00.889Z,21.69
2018-08-04T22:51:31.935Z,21.58
2018-08-04T22:54:00.998Z,21.55
2018-08-04T22:56:30.048Z,21.32
2018-08-04T22:59:00.083Z,21.16
2018-08-04T23:04:05.927Z,21.05
2018-08-04T23:06:35.956Z,21.04
2018-08-04T23:09:05.973Z,21.16
2018-08-04T23:11:35.051Z,21.32
2018-08-04T23:21:51.344Z,21.71
2018-08-04T23:24:20.696Z,21.73
2018-08-04T23:29:26.506Z,21.81
2018-08-04T23:31:55.576Z,21.90
2018-08-04T23:37:00.374Z,22.08
2018-08-04T23:39:29.470Z,22.15
2018-08-04T23:41:58.511Z,22.20
2018-08-04T23:44:27.570Z,22.25
2018-08-04T23:46:56.627Z,22.34
2018-08-04T23:49:25.727Z,22.33
2018-08-04T23:54:30.514Z,22.14
2018-08-04T23:56:59.568Z,22.29
